createdAt,value
2023-05-21T00:02:21.433Z,13.70
2023-05-21T00:04:48.099Z,13.45
2023-05-21T00:07:15.453Z,15.43
2023-05-21T00:09:42.155Z,14.68
2023-05-21T00:12:09.112Z,18.02
2023-05-21T00:14:36.332Z,16.15
2023-05-21T00:17:02.921Z,18.85
2023-05-21T00:19:29.601Z,16.77
2023-05-21T00:21:57.583Z,13.95
2023-05-21T00:24:24.149Z,14.02
2023-05-21T00:26:50.927Z,16.83
2023-05-21T00:29:17.492Z,15.40
2023-05-21T00:31:44.273Z,17.63
2023-05-21T00:34:10.940Z,13.18
2023-05-21T00:36:38.039Z,14.13
2023-05-21T00:39:05.768Z,15.50
2023-05-21T00:41:32.297Z,13.20
2023-05-21T00:44:00.370Z,16.70
2023-05-21T00:46:28.551Z,14.75
2023-05-21T00:48:55.485Z,16.88
2023-05-21T00:51:22.279Z,14.55
2023-05-21T00:53:53.178Z,17.70
2023-05-21T00:56:22.685Z,17.90
2023-05-21T00:58:51.965Z,16.73
2023-05-21T01:01:19.442Z,16.52
2023-05-21T01:03:48.753Z,16.95
2023-05-21T01:06:16.045Z,14.23
2023-05-21T01:08:42.940Z,14.32
2023-05-21T01:11:11.265Z,14.82
2023-05-21T01:13:41.259Z,15.15
2023-05-21T01:16:09.031Z,15.23
2023-05-21T01:18:37.833Z,15.20
2023-05-21T01:21:05.368Z,16.48
2023-05-21T01:23:32.081Z,16.13
2023-05-21T01:25:58.756Z,13.32
2023-05-21T01:28:25.519Z,15.02
2023-05-21T01:30:52.152Z,15.23
2023-05-21T01:33:24.951Z,16.33
2023-05-21T01:36:01.414Z,15.95
2023-05-21T01:38:40.607Z,13.75
2023-05-21T01:41:11.183Z,14.30
2023-05-21T01:43:39.813Z,14.55
2023-05-21T01:46:09.636Z,15.65
2023-05-21T01:48:37.517Z,17.33
2023-05-21T01:51:05.922Z,16.50
2023-05-21T01:53:32.679Z,13.60
2023-05-21T01:55:59.384Z,16.55
2023-05-21T01:58:26.272Z,13.93
2023-05-21T02:00:53.007Z,15.38
2023-05-21T02:03:20.739Z,13.73
2023-05-21T02:05:47.562Z,16.70
2023-05-21T02:08:15.157Z,15.73
2023-05-21T02:10:41.740Z,15.13
2023-05-21T02:13:08.616Z,17.17
2023-05-21T02:15:35.418Z,17.92
2023-05-21T02:18:02.580Z,16.17
2023-05-21T02:20:30.565Z,14.57
2023-05-21T02:22:57.453Z,16.80
2023-05-21T02:25:23.972Z,15.45
2023-05-21T02:27:53.636Z,14.95
2023-05-21T02:30:20.724Z,17.08
2023-05-21T02:32:49.840Z,15.23
2023-05-21T02:35:16.477Z,17.20
2023-05-21T02:37:44.170Z,15.77
2023-05-21T02:40:11.753Z,15.98
2023-05-21T02:42:40.108Z,15.05
2023-05-21T02:45:10.003Z,16.92
2023-05-21T02:47:38.591Z,16.30
2023-05-21T02:50:08.830Z,16.85
2023-05-21T02:52:42.186Z,18.50
2023-05-21T02:55:09.426Z,17.13
2023-05-21T02:57:35.961Z,13.73
2023-05-21T03:00:05.919Z,16.65
2023-05-21T03:02:32.975Z,18.83
2023-05-21T03:05:00.606Z,15.57
2023-05-21T03:07:27.221Z,16.20
2023-05-21T03:09:53.989Z,16.00
2023-05-21T03:12:20.664Z,15.25
2023-05-21T03:14:49.318Z,17.08
2023-05-21T03:17:17.014Z,14.50
2023-05-21T03:19:44.254Z,14.25
2023-05-21T03:22:11.402Z,16.30
2023-05-21T03:24:38.910Z,15.27
2023-05-21T03:27:07.042Z,17.58
2023-05-21T03:29:34.944Z,14.65
2023-05-21T03:32:02.947Z,14.15
2023-05-21T03:34:31.007Z,15.88
2023-05-21T03:36:58.204Z,14.88
2023-05-21T03:39:26.333Z,14.35
2023-05-21T03:41:54.626Z,14.38
2023-05-21T03:44:36.915Z,14.38
2023-05-21T03:47:16.660Z,14.65
2023-05-21T03:49:43.524Z,18.08
2023-05-21T03:52:10.370Z,14.15
2023-05-21T03:54:37.134Z,16.85
2023-05-21T03:57:07.098Z,18.17
2023-05-21T03:59:34.381Z,15.48
2023-05-21T04:02:01.272Z,16.77
2023-05-21T04:04:29.488Z,17.63
2023-05-21T04:06:56.231Z,20.67
2023-05-21T04:09:23.179Z,16.55
2023-05-21T04:11:51.867Z,20.60
2023-05-21T04:14:18.388Z,17.48
2023-05-21T04:16:45.000Z,14.93
2023-05-21T04:19:12.701Z,18.48
2023-05-21T04:21:40.349Z,19.98
2023-05-21T04:24:07.627Z,21.10
2023-05-21T04:26:44.958Z,17.58
2023-05-21T04:29:11.884Z,19.02
2023-05-21T04:31:38.689Z,16.60
2023-05-21T04:34:05.367Z,19.83
2023-05-21T04:36:33.737Z,17.02
2023-05-21T04:39:00.641Z,17.85
2023-05-21T04:41:28.533Z,17.10
2023-05-21T04:43:55.400Z,19.33
2023-05-21T04:46:25.980Z,18.02
2023-05-21T04:48:56.631Z,18.50
2023-05-21T04:51:24.888Z,18.05
2023-05-21T04:53:51.978Z,17.42
2023-05-21T04:56:18.628Z,16.20
2023-05-21T04:58:47.947Z,17.35
2023-05-21T05:01:18.914Z,15.93
2023-05-21T05:03:45.958Z,19.90
2023-05-21T05:06:12.508Z,17.92
2023-05-21T05:08:39.346Z,18.38
2023-05-21T05:11:06.095Z,17.65
2023-05-21T05:13:32.677Z,17.77
2023-05-21T05:16:00.364Z,17.58
2023-05-21T05:18:27.382Z,17.77
2023-05-21T05:20:54.486Z,19.23
2023-05-21T05:23:21.038Z,17.48
2023-05-21T05:25:47.650Z,19.23
2023-05-21T05:28:14.506Z,16.77
2023-05-21T05:30:41.045Z,15.90
2023-05-21T05:33:20.999Z,17.35
2023-05-21T05:35:47.673Z,17.55
2023-05-21T05:38:14.203Z,16.77
2023-05-21T05:40:41.693Z,25.60
2023-05-21T05:43:08.479Z,20.85
2023-05-21T05:45:35.249Z,16.98
2023-05-21T05:48:06.385Z,16.77
2023-05-21T05:50:33.075Z,17.27
2023-05-21T05:52:59.610Z,17.52
2023-05-21T05:55:26.854Z,20.35
2023-05-21T05:57:54.411Z,19.80
2023-05-21T06:00:21.527Z,17.13
2023-05-21T06:02:49.961Z,16.95
2023-05-21T06:05:17.122Z,18.50
2023-05-21T06:07:43.764Z,16.58
2023-05-21T06:10:10.748Z,16.27
2023-05-21T06:12:37.229Z,15.63
2023-05-21T06:15:04.978Z,16.85
2023-05-21T06:17:31.829Z,16.90
2023-05-21T06:19:58.472Z,16.10
2023-05-21T06:22:26.729Z,15.38
2023-05-21T06:24:53.425Z,17.20
2023-05-21T06:27:20.634Z,23.02
2023-05-21T06:29:48.426Z,24.15
2023-05-21T06:32:15.103Z,16.55
2023-05-21T06:34:42.039Z,17.50
2023-05-21T06:37:08.584Z,14.35
2023-05-21T06:39:35.175Z,18.48
2023-05-21T06:42:01.773Z,14.02
2023-05-21T06:44:57.462Z,13.95
2023-05-21T06:47:33.773Z,18.98
2023-05-21T06:50:00.500Z,14.52
2023-05-21T06:52:27.182Z,13.95
2023-05-21T06:54:54.160Z,14.43
2023-05-21T06:57:21.925Z,15.20
2023-05-21T06:59:48.476Z,13.68
2023-05-21T07:02:18.219Z,14.38
2023-05-21T07:04:44.978Z,15.00
2023-05-21T07:07:11.671Z,13.15
2023-05-21T07:09:38.299Z,16.00
2023-05-21T07:12:05.400Z,14.50
2023-05-21T07:14:32.861Z,13.05
2023-05-21T07:16:59.424Z,14.40
2023-05-21T07:19:26.252Z,12.65
2023-05-21T07:21:53.536Z,14.55
2023-05-21T07:24:21.056Z,16.70
2023-05-21T07:26:47.964Z,16.05
2023-05-21T07:29:14.538Z,16.63
2023-05-21T07:31:41.268Z,14.88
2023-05-21T07:34:07.872Z,13.23
2023-05-21T07:36:34.481Z,14.00
2023-05-21T07:39:01.676Z,13.82
2023-05-21T07:41:28.971Z,13.70
2023-05-21T07:43:57.092Z,13.05
2023-05-21T07:46:23.684Z,13.48
2023-05-21T07:48:53.717Z,15.93
2023-05-21T07:51:20.280Z,13.10
2023-05-21T07:53:46.855Z,15.85
2023-05-21T07:56:15.729Z,13.55
2023-05-21T07:58:45.831Z,14.68
2023-05-21T08:01:13.762Z,12.30
2023-05-21T08:03:40.541Z,17.30
2023-05-21T08:06:07.569Z,15.35
2023-05-21T08:08:34.243Z,16.17
2023-05-21T08:11:00.816Z,13.35
2023-05-21T08:13:27.856Z,13.05
2023-05-21T08:15:54.917Z,18.83
2023-05-21T08:18:23.928Z,14.80
2023-05-21T08:20:52.467Z,15.63
2023-05-21T08:23:20.625Z,13.75
2023-05-21T08:25:51.250Z,15.52
2023-05-21T08:28:17.927Z,16.60
2023-05-21T08:30:44.548Z,14.27
2023-05-21T08:33:11.349Z,13.95
2023-05-21T08:35:39.056Z,13.18
2023-05-21T08:38:16.994Z,13.80
2023-05-21T08:40:59.959Z,13.52
2023-05-21T08:43:30.060Z,13.77
2023-05-21T08:46:00.625Z,13.60
2023-05-21T08:48:31.983Z,14.70
2023-05-21T08:51:01.371Z,14.40
2023-05-21T08:56:00.205Z,12.77
2023-05-21T08:58:43.680Z,13.38
2023-05-21T09:01:12.444Z,12.45
2023-05-21T09:03:41.228Z,11.55
2023-05-21T09:06:14.095Z,14.48
2023-05-21T09:08:45.909Z,13.20
2023-05-21T09:11:34.997Z,11.82
2023-05-21T09:14:02.290Z,14.13
2023-05-21T09:16:55.127Z,14.65
2023-05-21T09:19:22.392Z,11.65
2023-05-21T09:21:51.848Z,13.57
2023-05-21T09:24:23.958Z,14.15
2023-05-21T09:26:52.492Z,11.82
2023-05-21T09:29:19.604Z,14.10
2023-05-21T09:31:46.558Z,11.32
2023-05-21T09:34:14.201Z,11.65
2023-05-21T09:36:44.032Z,12.35
2023-05-21T09:39:16.336Z,12.13
2023-05-21T09:41:43.454Z,14.95
2023-05-21T09:44:10.698Z,12.43
2023-05-21T09:46:39.498Z,12.35
2023-05-21T09:49:06.749Z,13.23
2023-05-21T09:51:33.463Z,11.48
2023-05-21T09:54:00.160Z,12.93
2023-05-21T09:56:30.708Z,11.30
2023-05-21T09:59:00.418Z,12.55
2023-05-21T10:01:27.511Z,14.65
2023-05-21T10:03:56.995Z,11.13
2023-05-21T10:06:32.304Z,13.40
2023-05-21T10:09:02.550Z,11.45
2023-05-21T10:11:31.994Z,13.10
2023-05-21T10:14:03.857Z,12.75
2023-05-21T10:16:33.316Z,12.57
2023-05-21T10:19:00.596Z,12.63
2023-05-21T10:21:28.235Z,15.93
2023-05-21T10:23:57.308Z,15.15
2023-05-21T10:26:24.574Z,12.15
2023-05-21T10:28:52.109Z,12.73
2023-05-21T10:31:19.816Z,16.13
2023-05-21T10:33:46.396Z,10.95
2023-05-21T10:36:16.585Z,16.10
2023-05-21T10:38:44.730Z,13.82
2023-05-21T10:41:13.185Z,12.57
2023-05-21T10:43:56.533Z,10.60
2023-05-21T10:46:41.787Z,12.10
2023-05-21T10:49:30.142Z,11.32
2023-05-21T10:52:15.238Z,13.98
2023-05-21T10:55:04.131Z,12.48
2023-05-21T10:57:45.884Z,12.18
2023-05-21T11:00:16.116Z,13.15
2023-05-21T11:02:43.428Z,11.52
2023-05-21T11:05:10.104Z,10.52
2023-05-21T11:08:01.566Z,11.50
2023-05-21T11:10:39.319Z,10.40
2023-05-21T11:13:16.758Z,10.30
2023-05-21T11:15:58.515Z,10.23
2023-05-21T11:18:31.186Z,9.45
2023-05-21T11:21:04.276Z,12.43
2023-05-21T11:23:52.646Z,11.77
2023-05-21T11:26:23.940Z,11.32
2023-05-21T11:29:03.287Z,10.90
2023-05-21T11:31:38.072Z,10.45
2023-05-21T11:34:11.069Z,10.77
2023-05-21T11:36:38.901Z,11.90
2023-05-21T11:39:22.205Z,11.05
2023-05-21T11:41:52.355Z,10.82
2023-05-21T11:44:21.218Z,10.77
2023-05-21T11:46:49.156Z,9.80
2023-05-21T11:49:16.375Z,11.18
2023-05-21T11:51:43.489Z,10.20
2023-05-21T11:54:10.317Z,10.52
2023-05-21T11:56:42.034Z,10.65
2023-05-21T11:59:16.032Z,10.85
2023-05-21T12:01:44.176Z,11.07
2023-05-21T12:04:13.841Z,11.15
2023-05-21T12:06:43.035Z,11.85
2023-05-21T12:09:12.497Z,11.38
2023-05-21T12:11:41.996Z,15.93
2023-05-21T12:14:10.269Z,10.52
2023-05-21T12:16:37.659Z,11.48
2023-05-21T12:19:04.601Z,15.73
2023-05-21T12:21:31.784Z,13.90
2023-05-21T12:23:59.067Z,13.05
2023-05-21T12:26:26.450Z,22.55
2023-05-21T12:28:56.799Z,20.52
2023-05-21T12:31:23.674Z,11.70
2023-05-21T12:33:53.603Z,18.65
2023-05-21T12:36:27.476Z,22.92
2023-05-21T12:38:54.621Z,12.93
2023-05-21T12:41:22.764Z,13.65
2023-05-21T12:43:50.764Z,10.38
2023-05-21T12:46:18.862Z,10.27
2023-05-21T12:48:49.875Z,10.75
2023-05-21T12:51:16.613Z,10.48
2023-05-21T12:53:43.362Z,11.82
2023-05-21T12:56:15.161Z,12.85
2023-05-21T12:58:42.689Z,10.77
2023-05-21T13:01:10.935Z,12.82
2023-05-21T13:03:38.927Z,15.23
2023-05-21T13:06:09.200Z,11.73
2023-05-21T13:08:36.047Z,11.50
2023-05-21T13:11:03.563Z,12.05
2023-05-21T13:13:30.882Z,13.10
2023-05-21T13:16:00.559Z,17.48
2023-05-21T13:18:27.541Z,21.75
2023-05-21T13:20:54.224Z,15.98
2023-05-21T13:23:20.852Z,13.52
2023-05-21T13:25:47.451Z,9.75
2023-05-21T13:28:15.282Z,10.98
2023-05-21T13:30:41.908Z,11.85
2023-05-21T13:33:08.672Z,10.52
2023-05-21T13:35:35.294Z,11.18
2023-05-21T13:38:02.119Z,11.48
2023-05-21T13:40:28.978Z,14.43
2023-05-21T13:42:55.618Z,11.13
2023-05-21T13:45:24.304Z,12.18
2023-05-21T13:47:50.997Z,9.93
2023-05-21T13:50:17.778Z,11.10
2023-05-21T13:52:44.542Z,8.68
2023-05-21T13:55:11.240Z,9.63
2023-05-21T13:57:37.971Z,10.02
2023-05-21T14:00:05.366Z,10.60
2023-05-21T14:02:34.688Z,11.10
2023-05-21T14:05:01.464Z,9.07
2023-05-21T14:07:28.044Z,10.43
2023-05-21T14:09:54.659Z,10.68
2023-05-21T14:12:21.765Z,8.82
2023-05-21T14:14:49.863Z,10.23
2023-05-21T14:17:16.775Z,12.23
2023-05-21T14:19:43.420Z,9.77
2023-05-21T14:22:09.952Z,8.48
2023-05-21T14:24:36.501Z,10.35
2023-05-21T14:27:03.411Z,8.70
2023-05-21T14:29:29.964Z,8.35
2023-05-21T14:31:56.683Z,11.57
2023-05-21T14:34:23.260Z,9.30
2023-05-21T14:36:49.787Z,8.90
2023-05-21T14:39:17.189Z,9.23
2023-05-21T14:41:43.839Z,12.30
2023-05-21T14:44:10.440Z,9.25
2023-05-21T14:46:38.397Z,10.30
2023-05-21T14:49:04.965Z,9.43
2023-05-21T14:51:31.769Z,9.38
2023-05-21T14:53:58.546Z,9.77
2023-05-21T14:56:27.297Z,9.82
2023-05-21T14:58:54.092Z,10.48
2023-05-21T15:01:20.764Z,12.98
2023-05-21T15:03:47.560Z,14.85
2023-05-21T15:06:14.222Z,8.50
2023-05-21T15:08:40.784Z,8.60
2023-05-21T15:11:10.438Z,8.95
2023-05-21T15:13:37.935Z,8.57
2023-05-21T15:16:04.780Z,9.50
2023-05-21T15:18:31.370Z,8.68
2023-05-21T15:20:58.575Z,9.77
2023-05-21T15:23:25.409Z,11.10
2023-05-21T15:25:52.059Z,11.07
2023-05-21T15:28:18.602Z,10.35
2023-05-21T15:30:45.389Z,9.27
2023-05-21T15:33:12.186Z,9.57
2023-05-21T15:35:39.255Z,8.35
2023-05-21T15:38:06.149Z,10.27
2023-05-21T15:40:32.664Z,10.27
2023-05-21T15:42:59.306Z,10.25
2023-05-21T15:45:25.914Z,8.20
2023-05-21T15:47:52.538Z,7.90
2023-05-21T15:50:19.263Z,9.50
2023-05-21T15:52:45.791Z,11.48
2023-05-21T15:55:13.838Z,12.75
2023-05-21T15:57:40.475Z,9.00
2023-05-21T16:00:08.122Z,9.45
2023-05-21T16:02:35.571Z,10.10
2023-05-21T16:05:02.673Z,8.32
2023-05-21T16:07:29.194Z,7.82
2023-05-21T16:09:55.766Z,14.07
2023-05-21T16:12:22.492Z,9.85
2023-05-21T16:14:51.958Z,8.82
2023-05-21T16:17:21.680Z,8.60
2023-05-21T16:19:48.353Z,9.35
2023-05-21T16:22:20.192Z,8.80
2023-05-21T16:24:47.812Z,9.38
2023-05-21T16:27:14.418Z,9.05
2023-05-21T16:29:41.645Z,8.10
2023-05-21T16:32:08.624Z,8.48
2023-05-21T16:34:35.971Z,8.85
2023-05-21T16:37:02.518Z,9.57
2023-05-21T16:39:29.117Z,9.13
2023-05-21T16:41:59.536Z,7.80
2023-05-21T16:44:26.832Z,7.43
2023-05-21T16:46:54.470Z,8.95
2023-05-21T16:49:21.059Z,8.15
2023-05-21T16:51:47.615Z,7.82
2023-05-21T16:54:14.140Z,8.70
2023-05-21T16:56:40.664Z,9.43
2023-05-21T16:59:07.217Z,10.70
2023-05-21T17:01:33.776Z,9.48
2023-05-21T17:04:00.640Z,8.50
2023-05-21T17:06:27.413Z,9.52
2023-05-21T17:08:53.965Z,8.48
2023-05-21T17:11:21.564Z,7.53
2023-05-21T17:13:49.633Z,7.60
2023-05-21T17:16:16.447Z,7.70
2023-05-21T17:18:43.022Z,7.50
2023-05-21T17:21:10.011Z,7.25
2023-05-21T17:23:36.589Z,8.32
2023-05-21T17:26:03.239Z,8.00
2023-05-21T17:28:29.806Z,8.15
2023-05-21T17:30:56.478Z,7.78
2023-05-21T17:33:24.516Z,8.25
2023-05-21T17:35:51.167Z,9.70
2023-05-21T17:38:17.819Z,7.13
2023-05-21T17:40:44.425Z,8.23
2023-05-21T17:43:11.065Z,7.53
2023-05-21T17:45:37.983Z,10.10
2023-05-21T17:48:05.081Z,7.85
2023-05-21T17:50:31.842Z,7.22
2023-05-21T17:52:58.493Z,9.45
2023-05-21T17:55:25.346Z,6.90
2023-05-21T17:57:52.054Z,7.82
2023-05-21T18:00:19.165Z,8.48
2023-05-21T18:02:45.793Z,8.48
2023-05-21T18:05:12.364Z,7.10
2023-05-21T18:07:39.967Z,7.85
2023-05-21T18:10:07.085Z,8.50
2023-05-21T18:12:33.750Z,8.07
2023-05-21T18:15:01.829Z,7.82
2023-05-21T18:17:28.469Z,7.50
2023-05-21T18:19:55.074Z,9.93
2023-05-21T18:22:21.797Z,7.93
2023-05-21T18:24:48.405Z,7.10
2023-05-21T18:27:15.519Z,7.28
2023-05-21T18:29:42.046Z,8.88
2023-05-21T18:32:09.132Z,8.00
2023-05-21T18:34:35.943Z,8.00
2023-05-21T18:37:02.520Z,10.30
2023-05-21T18:39:29.051Z,7.82
2023-05-21T18:42:11.485Z,8.70
2023-05-21T18:44:39.200Z,9.27
2023-05-21T18:47:07.485Z,8.30
2023-05-21T18:49:35.775Z,9.95
2023-05-21T18:52:02.767Z,9.95
2023-05-21T18:54:29.598Z,8.73
2023-05-21T18:56:59.628Z,9.60
2023-05-21T18:59:27.175Z,12.48
2023-05-21T19:01:54.376Z,9.05
2023-05-21T19:04:21.527Z,8.35
2023-05-21T19:06:48.179Z,7.85
2023-05-21T19:09:14.757Z,10.73
2023-05-21T19:11:41.314Z,10.02
2023-05-21T19:14:07.963Z,11.45
2023-05-21T19:16:34.685Z,10.02
2023-05-21T19:19:01.976Z,9.45
2023-05-21T19:21:28.661Z,10.25
2023-05-21T19:23:55.277Z,11.70
2023-05-21T19:26:22.866Z,12.85
2023-05-21T19:28:54.381Z,12.00
2023-05-21T19:31:22.364Z,12.93
2023-05-21T19:33:49.325Z,17.15
2023-05-21T19:36:16.205Z,13.20
2023-05-21T19:38:50.116Z,11.60
2023-05-21T19:41:17.834Z,13.05
2023-05-21T19:43:45.252Z,13.27
2023-05-21T19:46:11.991Z,13.35
2023-05-21T19:48:38.681Z,12.93
2023-05-21T19:51:05.452Z,12.20
2023-05-21T19:53:32.083Z,11.25
2023-05-21T19:55:58.749Z,11.02
2023-05-21T19:58:27.605Z,11.35
2023-05-21T20:00:55.902Z,11.63
2023-05-21T20:03:25.148Z,12.13
2023-05-21T20:05:52.883Z,11.45
2023-05-21T20:08:19.403Z,11.27
2023-05-21T20:10:47.097Z,10.73
2023-05-21T20:13:14.626Z,11.20
2023-05-21T20:15:41.173Z,11.05
2023-05-21T20:18:07.873Z,11.10
2023-05-21T20:20:37.224Z,10.52
2023-05-21T20:23:03.917Z,13.30
2023-05-21T20:25:30.981Z,12.70
2023-05-21T20:27:58.588Z,11.55
2023-05-21T20:30:31.499Z,13.75
2023-05-21T20:33:00.110Z,14.30
2023-05-21T20:35:27.701Z,12.15
2023-05-21T20:37:54.849Z,12.68
2023-05-21T20:40:21.442Z,13.45
2023-05-21T20:42:48.358Z,12.90
2023-05-21T20:45:16.274Z,16.42
2023-05-21T20:47:43.535Z,12.32
2023-05-21T20:50:12.073Z,15.88
2023-05-21T20:52:38.680Z,30.00
2023-05-21T20:55:05.687Z,15.48
2023-05-21T20:57:32.538Z,13.77
2023-05-21T20:59:59.140Z,18.25
2023-05-21T21:02:25.770Z,12.27
2023-05-21T21:04:53.798Z,12.20
2023-05-21T21:07:20.693Z,14.77
2023-05-21T21:09:48.919Z,15.32
2023-05-21T21:12:26.054Z,13.60
2023-05-21T21:14:53.881Z,16.10
2023-05-21T21:17:20.885Z,12.95
2023-05-21T21:19:47.527Z,12.88
2023-05-21T21:22:15.724Z,14.57
2023-05-21T21:24:42.318Z,12.77
2023-05-21T21:27:09.048Z,13.90
2023-05-21T21:29:35.604Z,12.80
2023-05-21T21:32:02.290Z,14.85
2023-05-21T21:34:28.786Z,13.10
2023-05-21T21:36:55.346Z,14.00
2023-05-21T21:39:21.910Z,13.40
2023-05-21T21:41:48.502Z,13.40
2023-05-21T21:44:15.026Z,13.73
2023-05-21T21:46:41.645Z,14.15
2023-05-21T21:49:08.175Z,12.90
2023-05-21T21:51:35.252Z,15.30
2023-05-21T21:54:01.866Z,14.88
2023-05-21T21:56:29.590Z,15.25
2023-05-21T21:58:56.095Z,15.52
2023-05-21T22:01:22.816Z,15.70
2023-05-21T22:03:49.665Z,15.10
2023-05-21T22:06:16.182Z,14.40
2023-05-21T22:08:42.748Z,14.18
2023-05-21T22:11:09.430Z,13.73
2023-05-21T22:13:35.955Z,15.60
2023-05-21T22:16:02.665Z,15.40
2023-05-21T22:18:40.162Z,15.70
2023-05-21T22:21:14.101Z,14.27
2023-05-21T22:23:41.112Z,15.43
2023-05-21T22:26:07.664Z,15.05
2023-05-21T22:28:34.223Z,15.02
2023-05-21T22:31:00.949Z,15.65
2023-05-21T22:33:29.121Z,15.82
2023-05-21T22:35:55.681Z,15.63
2023-05-21T22:38:22.202Z,16.70
2023-05-21T22:40:48.724Z,16.38
2023-05-21T22:43:15.529Z,14.95
2023-05-21T22:45:42.145Z,16.27
2023-05-21T22:48:09.233Z,15.25
2023-05-21T22:50:36.064Z,15.43
2023-05-21T22:53:02.890Z,15.90
2023-05-21T22:55:29.566Z,15.50
2023-05-21T22:57:56.224Z,15.48
2023-05-21T23:00:22.940Z,16.85
2023-05-21T23:02:52.150Z,15.75
2023-05-21T23:05:20.648Z,16.80
2023-05-21T23:07:47.310Z,16.38
2023-05-21T23:10:13.856Z,15.85
2023-05-21T23:12:40.931Z,16.45
2023-05-21T23:15:09.743Z,15.85
2023-05-21T23:17:36.980Z,17.67
2023-05-21T23:20:03.942Z,14.88
2023-05-21T23:22:30.605Z,17.35
2023-05-21T23:24:57.293Z,18.33
2023-05-21T23:27:23.986Z,20.73
2023-05-21T23:29:50.690Z,15.05
2023-05-21T23:32:17.411Z,16.42
2023-05-21T23:34:43.941Z,16.67
2023-05-21T23:37:10.846Z,14.40
2023-05-21T23:39:37.549Z,15.48
2023-05-21T23:42:05.017Z,17.15
2023-05-21T23:44:31.829Z,15.00
2023-05-21T23:46:58.408Z,15.55
2023-05-21T23:49:24.955Z,18.33
2023-05-21T23:51:51.537Z,16.52
2023-05-21T23:54:18.183Z,17.10
2023-05-21T23:56:45.286Z,15.85
2023-05-21T23:59:11.827Z,17.35
